Tunnel Hill, GA

06:11 EDT, 28. Sentaber, 2016 (GMT -0400)
Mt Vernon | | Change Station

Elev 904 ft 34.81 °N, 85.05 °W | Updated 35 seconds ago

Clear
Ayaz
53.8 °F
Feels Like 53.8 °F
N
0.0
Cel Üzgärüçän Cel from
Gusts 0.0 mil/seğ

Bogön
High -- | Low -- °F
--% Chance of Precip.
Kiçä
High -- | Low -- °F
Precip. -- in
Basım 29.94 in
Köriniwçenlik 10.0 mil
Bolıtlı Ayaz
Çıq noqtası 54 °F
Dımlıq 99%
Rainfall 0.00 in
Qar bieklege Not available.
7:33 AM 7:27 PM
Waning Crescent, 6% visible
METAR KDNN 280955Z AUTO 00000KT 10SM CLR 15/12 A2994 RMK AO2
Basım 29.94 in
Köriniwçenlik 10.0 mil
Bolıtlı Ayaz
Çıq noqtası 54 °F
Dımlıq 99%
Rainfall 0.00 in
Qar bieklege Not available.
7:33 AM 7:27 PM
Waning Crescent, 6% visible
METAR KDNN 280955Z AUTO 00000KT 10SM CLR 15/12 A2994 RMK AO2

10-Day Weather Forecast

Almanac

Kükbelem

Sep. 28, 2016 Rise Set
Anıñ çağı
Tormışlı qaranğı
Diñgezdä qarañğı
Küktä qarañğı
Ay
Kürenmäle yaqtı ozınlığı
Kön ozınlığı
Tomorrow will be .
, % of the Moon is Illuminated

Today's Extremes

State Highs State Lows

Community

WunderPhotos

Upload Photos

1,942,216 photos uploaded!

WunderBlog® & News

Nearby

Hawa Sífatı

  Hawa Sífatı HS İndekse Pıçratqıç
Not available.

Qar terenligi

Station Depth Böyiklik

Earthquake Activity

Qala Distance Mag. Time & Date
Minimum magnitude displayed is 2.5.

Coastal Water Temperatures

Orın Cılılıq

Stations

Nearby Weather Stations

Station Location Cılılıq Cel köçi Çıq noqtası Dımlıq Cel Precip. Elev Yañartılıw Töri
                   

Watches & Warnings

There are currently no watches in effect.